createdAt,value
2022-11-13T00:04:34.736Z,19.48
2022-11-13T00:09:36.394Z,20.15
2022-11-13T00:14:38.028Z,22.17
2022-11-13T00:19:39.798Z,19.83
2022-11-13T00:24:41.527Z,20.13
2022-11-13T00:29:43.226Z,22.20
2022-11-13T00:34:48.491Z,23.25
2022-11-13T00:39:51.253Z,22.52
2022-11-13T00:44:55.052Z,21.75
2022-11-13T00:49:56.644Z,20.52
2022-11-13T00:54:58.254Z,23.70
2022-11-13T00:59:59.841Z,21.00
2022-11-13T01:05:01.892Z,20.42
2022-11-13T01:10:05.403Z,19.77
2022-11-13T01:15:07.477Z,23.90
2022-11-13T01:20:09.867Z,23.88
2022-11-13T01:25:11.494Z,23.08
2022-11-13T01:30:13.142Z,24.27
2022-11-13T01:35:14.767Z,22.90
2022-11-13T01:40:16.783Z,25.88
2022-11-13T01:45:56.163Z,25.02
2022-11-13T01:50:58.691Z,25.13
2022-11-13T01:56:00.459Z,25.13
2022-11-13T02:01:02.143Z,27.25
2022-11-13T02:06:04.063Z,25.42
2022-11-13T02:11:05.964Z,26.83
2022-11-13T02:16:09.460Z,28.02
2022-11-13T02:21:42.021Z,26.80
2022-11-13T02:26:45.043Z,28.83
2022-11-13T02:31:46.629Z,28.00
2022-11-13T02:36:48.599Z,27.58
2022-11-13T02:41:50.223Z,29.65
2022-11-13T02:46:51.900Z,29.77
2022-11-13T02:51:53.602Z,29.23
2022-11-13T02:56:55.192Z,29.75
2022-11-13T03:01:56.836Z,28.65
2022-11-13T03:06:58.616Z,29.45
2022-11-13T03:12:00.563Z,27.98
2022-11-13T03:17:02.274Z,28.75
2022-11-13T03:22:04.023Z,31.27
2022-11-13T03:27:05.635Z,29.90
2022-11-13T03:32:07.358Z,32.15
2022-11-13T03:37:09.068Z,31.33
2022-11-13T03:42:10.679Z,30.17
2022-11-13T03:47:12.318Z,31.40
2022-11-13T03:52:13.932Z,30.08
2022-11-13T03:57:15.571Z,34.67
2022-11-13T04:02:17.224Z,34.00
2022-11-13T04:07:18.888Z,32.78
2022-11-13T04:12:20.542Z,34.92
2022-11-13T04:17:22.168Z,32.45
2022-11-13T04:22:23.815Z,34.65
2022-11-13T04:27:25.559Z,31.70
2022-11-13T04:32:27.203Z,31.92
2022-11-13T04:37:28.852Z,31.80
2022-11-13T04:42:48.946Z,34.20
2022-11-13T04:47:51.474Z,32.17
2022-11-13T04:52:53.114Z,30.85
2022-11-13T04:57:55.615Z,28.85
2022-11-13T05:02:57.295Z,25.80
2022-11-13T05:07:58.996Z,28.30
2022-11-13T05:13:00.611Z,27.83
2022-11-13T05:18:02.215Z,26.27
2022-11-13T05:23:03.931Z,20.70
2022-11-13T05:28:05.579Z,23.98
2022-11-13T05:33:07.255Z,21.95
2022-11-13T05:38:08.960Z,24.42
2022-11-13T05:43:10.556Z,26.17
2022-11-13T05:48:12.168Z,25.25
2022-11-13T05:53:13.829Z,29.25
2022-11-13T05:58:15.455Z,28.05
2022-11-13T06:03:17.051Z,25.35
2022-11-13T06:08:18.663Z,26.15
2022-11-13T06:13:20.694Z,27.13
2022-11-13T06:18:26.634Z,26.23
2022-11-13T06:23:28.711Z,32.30
2022-11-13T06:28:31.258Z,23.92
2022-11-13T06:33:33.649Z,31.15
2022-11-13T06:38:38.606Z,34.90
2022-11-13T06:43:40.818Z,26.52
2022-11-13T06:48:42.771Z,25.13
2022-11-13T06:53:44.775Z,25.52
2022-11-13T06:58:46.761Z,25.95
2022-11-13T07:03:48.726Z,27.10
2022-11-13T07:08:50.914Z,28.17
2022-11-13T07:13:52.561Z,30.08
2022-11-13T07:18:54.803Z,29.90
2022-11-13T07:23:56.558Z,29.08
2022-11-13T07:28:58.290Z,28.75
2022-11-13T07:34:00.153Z,25.13
2022-11-13T07:39:01.835Z,26.85
2022-11-13T07:44:07.940Z,22.73
2022-11-13T07:49:10.647Z,23.13
2022-11-13T07:54:12.253Z,20.83
2022-11-13T07:59:13.985Z,20.45
2022-11-13T08:04:15.673Z,20.38
2022-11-13T08:09:17.394Z,16.92
2022-11-13T08:14:19.136Z,17.73
2022-11-13T08:19:20.826Z,16.77
2022-11-13T08:24:22.517Z,16.75
2022-11-13T08:29:24.408Z,14.63
2022-11-13T08:34:26.111Z,16.90
2022-11-13T08:39:27.830Z,15.93
2022-11-13T08:44:29.653Z,14.43
2022-11-13T08:49:31.445Z,14.10
2022-11-13T08:54:33.149Z,13.35
2022-11-13T08:59:34.740Z,12.48
2022-11-13T09:04:36.372Z,16.27
2022-11-13T09:09:38.020Z,13.35
2022-11-13T09:14:39.711Z,11.40
2022-11-13T09:19:41.435Z,12.13
2022-11-13T09:24:43.257Z,10.38
2022-11-13T09:29:44.963Z,10.60
2022-11-13T09:34:46.616Z,9.85
2022-11-13T09:39:48.222Z,10.45
2022-11-13T09:44:58.966Z,9.48
2022-11-13T09:50:17.491Z,9.15
2022-11-13T09:55:23.237Z,8.77
2022-11-13T10:00:24.935Z,9.07
2022-11-13T10:05:45.842Z,9.48
2022-11-13T10:10:56.042Z,8.63
2022-11-13T10:16:13.935Z,7.03
2022-11-13T10:21:20.010Z,7.63
2022-11-13T10:26:26.876Z,7.47
2022-11-13T10:31:28.536Z,6.90
2022-11-13T10:37:00.347Z,7.63
2022-11-13T10:42:01.969Z,7.93
2022-11-13T10:47:15.945Z,6.22
2022-11-13T10:52:25.336Z,5.18
2022-11-13T10:57:35.848Z,5.60
2022-11-13T11:02:37.826Z,5.18
2022-11-13T11:07:41.564Z,5.53
2022-11-13T11:12:43.288Z,8.18
2022-11-13T11:17:54.215Z,5.00
2022-11-13T11:23:19.540Z,5.00
2022-11-13T11:28:27.353Z,3.97
2022-11-13T11:33:37.224Z,4.53
2022-11-13T11:38:59.773Z,4.40
2022-11-13T11:44:22.864Z,4.93
2022-11-13T11:49:26.288Z,5.22
2022-11-13T11:54:41.394Z,3.70
2022-11-13T11:59:52.029Z,2.85
2022-11-13T12:05:20.128Z,4.35
2022-11-13T12:10:49.201Z,3.53
2022-11-13T12:16:07.280Z,3.25
2022-11-13T12:21:31.752Z,3.38
2022-11-13T12:26:39.693Z,4.20
2022-11-13T12:31:47.146Z,3.38
2022-11-13T12:36:49.372Z,3.60
2022-11-13T12:41:57.976Z,3.83
2022-11-13T12:47:04.334Z,5.65
2022-11-13T12:52:24.434Z,3.90
2022-11-13T12:57:30.407Z,4.10
2022-11-13T13:02:53.883Z,3.63
2022-11-13T13:08:17.488Z,3.22
2022-11-13T13:13:37.081Z,3.28
2022-11-13T13:18:39.882Z,3.20
2022-11-13T13:23:44.971Z,5.07
2022-11-13T13:29:01.794Z,2.60
2022-11-13T13:34:40.118Z,5.60
2022-11-13T13:39:55.699Z,3.55
2022-11-13T13:45:15.037Z,3.33
2022-11-13T13:50:21.788Z,2.83
2022-11-13T13:55:36.436Z,5.10
2022-11-13T14:00:53.261Z,3.05
2022-11-13T14:06:09.826Z,3.47
2022-11-13T14:11:22.123Z,4.28
2022-11-13T14:16:23.790Z,4.45
2022-11-13T14:21:25.606Z,4.68
2022-11-13T14:26:27.288Z,4.65
2022-11-13T14:31:34.854Z,3.20
2022-11-13T14:36:38.116Z,3.25
2022-11-13T14:42:00.362Z,4.47
2022-11-13T14:47:06.821Z,5.63
2022-11-13T14:52:27.723Z,5.20
2022-11-13T14:57:29.536Z,4.03
2022-11-13T15:02:31.144Z,3.72
2022-11-13T15:07:34.147Z,3.03
2022-11-13T15:12:35.800Z,4.05
2022-11-13T15:17:37.421Z,3.00
2022-11-13T15:22:40.423Z,4.65
2022-11-13T15:27:43.488Z,4.88
2022-11-13T15:32:45.583Z,3.20
2022-11-13T15:37:47.239Z,3.80
2022-11-13T15:42:48.998Z,4.60
2022-11-13T15:47:50.625Z,9.10
2022-11-13T15:52:53.073Z,9.85
2022-11-13T15:57:55.862Z,7.78
2022-11-13T16:02:58.144Z,11.18
2022-11-13T16:07:59.829Z,12.20
2022-11-13T16:13:03.713Z,7.93
2022-11-13T16:18:12.107Z,11.88
2022-11-13T16:23:17.127Z,13.90
2022-11-13T16:28:19.143Z,14.40
2022-11-13T16:33:20.749Z,13.95
2022-11-13T16:38:22.392Z,16.60
2022-11-13T16:43:24.200Z,21.30
2022-11-13T16:48:25.812Z,21.08
2022-11-13T16:53:27.573Z,17.38
2022-11-13T16:58:29.388Z,25.38
2022-11-13T17:03:31.432Z,24.75
2022-11-13T17:08:33.381Z,21.23
2022-11-13T17:13:35.017Z,23.92
2022-11-13T17:18:36.683Z,20.50
2022-11-13T17:23:38.406Z,21.40
2022-11-13T17:28:40.348Z,17.52
2022-11-13T17:33:42.731Z,14.90
2022-11-13T17:38:44.386Z,13.48
2022-11-13T17:43:46.084Z,16.42
2022-11-13T17:48:48.087Z,13.88
2022-11-13T17:53:49.801Z,15.23
2022-11-13T17:58:51.466Z,13.60
2022-11-13T18:03:56.456Z,15.65
2022-11-13T18:08:58.056Z,17.25
2022-11-13T18:13:59.811Z,16.42
2022-11-13T18:19:03.629Z,17.55
2022-11-13T18:24:07.179Z,21.80
2022-11-13T18:29:09.513Z,18.77
2022-11-13T18:34:14.994Z,17.42
2022-11-13T18:39:16.994Z,18.10
2022-11-13T18:44:18.700Z,19.50
2022-11-13T18:49:20.357Z,19.38
2022-11-13T18:54:21.997Z,19.25
2022-11-13T18:59:23.644Z,17.42
2022-11-13T19:04:25.444Z,24.20
2022-11-13T19:09:27.211Z,21.98
2022-11-13T19:14:28.850Z,20.45
2022-11-13T19:19:30.524Z,21.83
2022-11-13T19:24:32.404Z,20.65
2022-11-13T19:29:34.036Z,21.35
2022-11-13T19:34:35.722Z,22.27
2022-11-13T19:39:37.525Z,22.75
2022-11-13T19:44:39.136Z,20.30
2022-11-13T19:49:40.826Z,20.75
2022-11-13T19:54:42.700Z,21.15
2022-11-13T19:59:44.320Z,20.80
2022-11-13T20:04:45.943Z,21.23
2022-11-13T20:09:47.587Z,22.40
2022-11-13T20:14:49.981Z,23.08
2022-11-13T20:19:51.612Z,20.88
2022-11-13T20:24:53.261Z,22.67
2022-11-13T20:29:54.903Z,22.95
2022-11-13T20:34:56.609Z,23.30
2022-11-13T20:39:58.567Z,22.38
2022-11-13T20:45:01.472Z,21.23
2022-11-13T20:50:03.569Z,15.10
2022-11-13T20:55:05.624Z,25.83
2022-11-13T21:00:08.684Z,20.08
2022-11-13T21:10:13.138Z,20.45
2022-11-13T21:15:15.083Z,21.23
2022-11-13T21:20:16.862Z,21.60
2022-11-13T21:25:19.597Z,20.98
2022-11-13T21:30:21.583Z,23.75
2022-11-13T21:35:23.201Z,23.67
2022-11-13T21:40:24.824Z,20.98
2022-11-13T21:45:28.487Z,21.45
2022-11-13T21:50:30.156Z,21.27
2022-11-13T21:55:31.785Z,23.17
2022-11-13T22:00:33.408Z,22.85
2022-11-13T22:05:35.109Z,20.05
2022-11-13T22:10:36.936Z,21.67
2022-11-13T22:15:38.593Z,20.40
2022-11-13T22:20:40.225Z,19.30
2022-11-13T22:25:41.882Z,21.67
2022-11-13T22:30:45.960Z,22.25
2022-11-13T22:40:49.164Z,18.75
2022-11-13T22:45:50.806Z,24.42
2022-11-13T22:50:52.415Z,20.17
2022-11-13T22:55:59.857Z,21.52
2022-11-13T23:01:12.237Z,24.40
2022-11-13T23:06:17.591Z,23.58
2022-11-13T23:11:21.567Z,23.25
2022-11-13T23:16:24.462Z,19.77
2022-11-13T23:21:27.406Z,19.67
2022-11-13T23:26:29.582Z,19.17
2022-11-13T23:31:31.180Z,21.42
2022-11-13T23:36:32.816Z,21.38
2022-11-13T23:41:34.413Z,19.58
2022-11-13T23:46:36.029Z,19.20
2022-11-13T23:51:37.626Z,19.20
2022-11-13T23:56:39.237Z,19.77
